sensor_id;sensor_type;location;lat;lon;timestamp;P1;durP1;ratioP1;P2;durP2;ratioP2
26690;SDS011;14307;51.718;8.938;2023-06-26T00:01:34;30.23;;;27.60;;
26690;SDS011;14307;51.718;8.938;2023-06-26T00:04:01;30.63;;;28.00;;
26690;SDS011;14307;51.718;8.938;2023-06-26T00:06:28;29.38;;;26.98;;
26690;SDS011;14307;51.718;8.938;2023-06-26T00:08:55;28.40;;;25.95;;
26690;SDS011;14307;51.718;8.938;2023-06-26T00:11:22;26.65;;;24.65;;
26690;SDS011;14307;51.718;8.938;2023-06-26T00:13:49;28.23;;;25.95;;
26690;SDS011;14307;51.718;8.938;2023-06-26T00:16:16;25.95;;;24.15;;
26690;SDS011;14307;51.718;8.938;2023-06-26T00:18:43;26.73;;;24.65;;
26690;SDS011;14307;51.718;8.938;2023-06-26T00:21:10;26.52;;;24.52;;
26690;SDS011;14307;51.718;8.938;2023-06-26T00:23:36;27.80;;;25.67;;
26690;SDS011;14307;51.718;8.938;2023-06-26T00:26:05;27.48;;;25.45;;
26690;SDS011;14307;51.718;8.938;2023-06-26T00:28:32;27.67;;;25.38;;
26690;SDS011;14307;51.718;8.938;2023-06-26T00:30:59;27.63;;;25.45;;
26690;SDS011;14307;51.718;8.938;2023-06-26T00:33:28;26.77;;;24.80;;
26690;SDS011;14307;51.718;8.938;2023-06-26T00:35:56;27.42;;;25.33;;
26690;SDS011;14307;51.718;8.938;2023-06-26T00:38:23;28.02;;;25.98;;
26690;SDS011;14307;51.718;8.938;2023-06-26T00:40:49;28.10;;;26.00;;
26690;SDS011;14307;51.718;8.938;2023-06-26T00:43:16;27.98;;;25.77;;
26690;SDS011;14307;51.718;8.938;2023-06-26T00:45:43;29.55;;;27.05;;
26690;SDS011;14307;51.718;8.938;2023-06-26T00:48:10;28.30;;;26.15;;
26690;SDS011;14307;51.718;8.938;2023-06-26T00:50:41;27.92;;;25.85;;
26690;SDS011;14307;51.718;8.938;2023-06-26T00:53:09;29.23;;;26.90;;
26690;SDS011;14307;51.718;8.938;2023-06-26T00:55:37;27.85;;;25.83;;
26690;SDS011;14307;51.718;8.938;2023-06-26T00:58:04;26.80;;;24.75;;
26690;SDS011;14307;51.718;8.938;2023-06-26T01:00:31;28.88;;;26.58;;
26690;SDS011;14307;51.718;8.938;2023-06-26T01:02:58;27.80;;;25.58;;
26690;SDS011;14307;51.718;8.938;2023-06-26T01:05:26;28.15;;;25.83;;
26690;SDS011;14307;51.718;8.938;2023-06-26T01:07:54;27.75;;;25.52;;
26690;SDS011;14307;51.718;8.938;2023-06-26T01:10:24;28.23;;;25.92;;
26690;SDS011;14307;51.718;8.938;2023-06-26T01:12:53;27.60;;;25.38;;
26690;SDS011;14307;51.718;8.938;2023-06-26T01:15:21;27.65;;;24.95;;
26690;SDS011;14307;51.718;8.938;2023-06-26T01:17:50;26.50;;;24.45;;
26690;SDS011;14307;51.718;8.938;2023-06-26T01:20:18;26.55;;;24.55;;
26690;SDS011;14307;51.718;8.938;2023-06-26T01:25:55;27.17;;;25.08;;
26690;SDS011;14307;51.718;8.938;2023-06-26T01:28:35;26.13;;;24.13;;
26690;SDS011;14307;51.718;8.938;2023-06-26T01:31:07;26.17;;;24.13;;
26690;SDS011;14307;51.718;8.938;2023-06-26T01:33:34;26.20;;;23.98;;
26690;SDS011;14307;51.718;8.938;2023-06-26T01:36:02;26.95;;;24.75;;
26690;SDS011;14307;51.718;8.938;2023-06-26T01:38:29;27.65;;;25.27;;
26690;SDS011;14307;51.718;8.938;2023-06-26T01:40:56;25.90;;;23.92;;
26690;SDS011;14307;51.718;8.938;2023-06-26T01:43:24;25.77;;;23.67;;
26690;SDS011;14307;51.718;8.938;2023-06-26T01:46:11;27.27;;;25.17;;
26690;SDS011;14307;51.718;8.938;2023-06-26T01:48:50;26.52;;;24.45;;
26690;SDS011;14307;51.718;8.938;2023-06-26T01:51:33;25.83;;;23.75;;
26690;SDS011;14307;51.718;8.938;2023-06-26T01:54:08;25.55;;;23.45;;
26690;SDS011;14307;51.718;8.938;2023-06-26T01:56:44;26.83;;;24.60;;
26690;SDS011;14307;51.718;8.938;2023-06-26T01:59:14;26.40;;;24.40;;
26690;SDS011;14307;51.718;8.938;2023-06-26T02:01:41;26.75;;;24.58;;
26690;SDS011;14307;51.718;8.938;2023-06-26T02:04:08;26.05;;;23.85;;
26690;SDS011;14307;51.718;8.938;2023-06-26T02:06:35;29.17;;;26.55;;
26690;SDS011;14307;51.718;8.938;2023-06-26T02:09:02;28.38;;;26.10;;
26690;SDS011;14307;51.718;8.938;2023-06-26T02:11:30;26.40;;;24.30;;
26690;SDS011;14307;51.718;8.938;2023-06-26T02:13:57;27.70;;;25.50;;
26690;SDS011;14307;51.718;8.938;2023-06-26T02:16:24;26.10;;;24.15;;
26690;SDS011;14307;51.718;8.938;2023-06-26T02:18:52;27.63;;;25.42;;
26690;SDS011;14307;51.718;8.938;2023-06-26T02:21:22;28.83;;;26.23;;
26690;SDS011;14307;51.718;8.938;2023-06-26T02:23:48;28.25;;;26.05;;
26690;SDS011;14307;51.718;8.938;2023-06-26T02:26:15;28.40;;;26.20;;
26690;SDS011;14307;51.718;8.938;2023-06-26T02:28:42;28.50;;;26.20;;
26690;SDS011;14307;51.718;8.938;2023-06-26T02:31:11;28.77;;;26.38;;
26690;SDS011;14307;51.718;8.938;2023-06-26T02:33:38;29.55;;;27.23;;
26690;SDS011;14307;51.718;8.938;2023-06-26T02:36:05;29.48;;;27.10;;
26690;SDS011;14307;51.718;8.938;2023-06-26T02:38:32;27.95;;;25.58;;
26690;SDS011;14307;51.718;8.938;2023-06-26T02:41:01;30.05;;;27.67;;
26690;SDS011;14307;51.718;8.938;2023-06-26T02:43:27;29.77;;;27.48;;
26690;SDS011;14307;51.718;8.938;2023-06-26T02:45:55;29.15;;;26.85;;
26690;SDS011;14307;51.718;8.938;2023-06-26T02:48:22;27.80;;;25.60;;
26690;SDS011;14307;51.718;8.938;2023-06-26T02:50:49;28.65;;;26.35;;
26690;SDS011;14307;51.718;8.938;2023-06-26T02:53:15;27.48;;;25.27;;
26690;SDS011;14307;51.718;8.938;2023-06-26T02:55:44;29.15;;;26.73;;
26690;SDS011;14307;51.718;8.938;2023-06-26T02:58:14;29.70;;;27.40;;
26690;SDS011;14307;51.718;8.938;2023-06-26T03:00:41;30.23;;;27.52;;
26690;SDS011;14307;51.718;8.938;2023-06-26T03:03:13;27.60;;;25.48;;
26690;SDS011;14307;51.718;8.938;2023-06-26T03:05:40;28.55;;;26.25;;
26690;SDS011;14307;51.718;8.938;2023-06-26T03:08:07;28.50;;;26.27;;
26690;SDS011;14307;51.718;8.938;2023-06-26T03:10:34;29.98;;;27.55;;
26690;SDS011;14307;51.718;8.938;2023-06-26T03:13:01;30.50;;;27.60;;
26690;SDS011;14307;51.718;8.938;2023-06-26T03:15:28;27.88;;;25.70;;
26690;SDS011;14307;51.718;8.938;2023-06-26T03:17:54;28.58;;;26.17;;
26690;SDS011;14307;51.718;8.938;2023-06-26T03:20:25;29.15;;;26.60;;
26690;SDS011;14307;51.718;8.938;2023-06-26T03:22:53;29.52;;;26.88;;
26690;SDS011;14307;51.718;8.938;2023-06-26T03:25:21;28.63;;;26.33;;
26690;SDS011;14307;51.718;8.938;2023-06-26T03:27:52;27.48;;;25.20;;
26690;SDS011;14307;51.718;8.938;2023-06-26T03:30:19;28.17;;;25.88;;
26690;SDS011;14307;51.718;8.938;2023-06-26T03:32:49;28.45;;;26.17;;
26690;SDS011;14307;51.718;8.938;2023-06-26T03:35:16;28.30;;;26.00;;
26690;SDS011;14307;51.718;8.938;2023-06-26T03:37:44;28.52;;;26.13;;
26690;SDS011;14307;51.718;8.938;2023-06-26T03:40:11;28.98;;;26.38;;
26690;SDS011;14307;51.718;8.938;2023-06-26T03:42:37;27.92;;;25.63;;
26690;SDS011;14307;51.718;8.938;2023-06-26T03:45:04;29.25;;;26.95;;
26690;SDS011;14307;51.718;8.938;2023-06-26T03:47:33;28.70;;;26.38;;
26690;SDS011;14307;51.718;8.938;2023-06-26T03:50:04;28.52;;;26.20;;
26690;SDS011;14307;51.718;8.938;2023-06-26T03:52:31;28.30;;;26.05;;
26690;SDS011;14307;51.718;8.938;2023-06-26T03:54:58;28.05;;;25.80;;
26690;SDS011;14307;51.718;8.938;2023-06-26T03:57:25;27.80;;;25.60;;
26690;SDS011;14307;51.718;8.938;2023-06-26T03:59:52;27.92;;;25.73;;
26690;SDS011;14307;51.718;8.938;2023-06-26T04:02:20;26.27;;;24.25;;
26690;SDS011;14307;51.718;8.938;2023-06-26T04:04:47;27.95;;;25.58;;
26690;SDS011;14307;51.718;8.938;2023-06-26T04:07:14;27.83;;;25.50;;
26690;SDS011;14307;51.718;8.938;2023-06-26T04:09:41;27.98;;;25.60;;
26690;SDS011;14307;51.718;8.938;2023-06-26T04:12:08;27.95;;;25.55;;
26690;SDS011;14307;51.718;8.938;2023-06-26T04:14:35;27.60;;;25.60;;
26690;SDS011;14307;51.718;8.938;2023-06-26T04:17:02;28.10;;;25.90;;
26690;SDS011;14307;51.718;8.938;2023-06-26T04:19:30;28.83;;;26.42;;
26690;SDS011;14307;51.718;8.938;2023-06-26T04:21:56;26.88;;;24.80;;
26690;SDS011;14307;51.718;8.938;2023-06-26T04:24:24;28.02;;;25.88;;
26690;SDS011;14307;51.718;8.938;2023-06-26T04:26:51;30.67;;;27.98;;
26690;SDS011;14307;51.718;8.938;2023-06-26T04:29:18;29.20;;;26.88;;
26690;SDS011;14307;51.718;8.938;2023-06-26T04:31:44;28.02;;;25.83;;
26690;SDS011;14307;51.718;8.938;2023-06-26T04:34:13;27.13;;;24.90;;
26690;SDS011;14307;51.718;8.938;2023-06-26T04:36:40;28.58;;;26.30;;
26690;SDS011;14307;51.718;8.938;2023-06-26T04:39:06;29.83;;;27.33;;
26690;SDS011;14307;51.718;8.938;2023-06-26T04:41:33;29.92;;;27.80;;
26690;SDS011;14307;51.718;8.938;2023-06-26T04:44:01;30.20;;;28.00;;
26690;SDS011;14307;51.718;8.938;2023-06-26T04:46:27;31.50;;;29.25;;
26690;SDS011;14307;51.718;8.938;2023-06-26T04:48:54;30.65;;;28.35;;
26690;SDS011;14307;51.718;8.938;2023-06-26T04:51:24;31.20;;;29.10;;
26690;SDS011;14307;51.718;8.938;2023-06-26T04:53:53;29.90;;;27.63;;
26690;SDS011;14307;51.718;8.938;2023-06-26T04:56:20;30.40;;;27.83;;
26690;SDS011;14307;51.718;8.938;2023-06-26T04:58:46;31.30;;;29.10;;
26690;SDS011;14307;51.718;8.938;2023-06-26T05:01:13;31.17;;;28.80;;
26690;SDS011;14307;51.718;8.938;2023-06-26T05:03:40;31.92;;;29.73;;
26690;SDS011;14307;51.718;8.938;2023-06-26T05:06:07;31.15;;;28.92;;
26690;SDS011;14307;51.718;8.938;2023-06-26T05:08:35;32.60;;;30.05;;
26690;SDS011;14307;51.718;8.938;2023-06-26T05:11:02;33.47;;;30.73;;
26690;SDS011;14307;51.718;8.938;2023-06-26T05:13:29;32.80;;;30.33;;
26690;SDS011;14307;51.718;8.938;2023-06-26T05:15:56;32.22;;;29.92;;
26690;SDS011;14307;51.718;8.938;2023-06-26T05:18:23;31.42;;;28.98;;
26690;SDS011;14307;51.718;8.938;2023-06-26T05:20:50;31.73;;;29.48;;
26690;SDS011;14307;51.718;8.938;2023-06-26T05:23:17;32.30;;;29.98;;
26690;SDS011;14307;51.718;8.938;2023-06-26T05:25:45;31.88;;;29.25;;
26690;SDS011;14307;51.718;8.938;2023-06-26T05:28:13;32.47;;;30.23;;
26690;SDS011;14307;51.718;8.938;2023-06-26T05:30:41;31.50;;;29.17;;
26690;SDS011;14307;51.718;8.938;2023-06-26T05:33:10;31.85;;;29.50;;
26690;SDS011;14307;51.718;8.938;2023-06-26T05:35:38;31.48;;;29.10;;
26690;SDS011;14307;51.718;8.938;2023-06-26T05:38:05;31.20;;;28.80;;
26690;SDS011;14307;51.718;8.938;2023-06-26T05:40:33;31.77;;;29.48;;
26690;SDS011;14307;51.718;8.938;2023-06-26T05:43:01;32.28;;;29.77;;
26690;SDS011;14307;51.718;8.938;2023-06-26T05:45:28;32.95;;;30.50;;
26690;SDS011;14307;51.718;8.938;2023-06-26T05:47:55;31.95;;;29.63;;
26690;SDS011;14307;51.718;8.938;2023-06-26T05:50:22;33.45;;;30.85;;
26690;SDS011;14307;51.718;8.938;2023-06-26T05:52:49;31.98;;;29.58;;
26690;SDS011;14307;51.718;8.938;2023-06-26T05:55:16;32.22;;;29.83;;
26690;SDS011;14307;51.718;8.938;2023-06-26T05:57:43;31.52;;;29.23;;
26690;SDS011;14307;51.718;8.938;2023-06-26T06:00:12;32.55;;;30.25;;
26690;SDS011;14307;51.718;8.938;2023-06-26T06:02:41;32.15;;;29.85;;
26690;SDS011;14307;51.718;8.938;2023-06-26T06:05:09;32.08;;;29.77;;
26690;SDS011;14307;51.718;8.938;2023-06-26T06:07:36;34.15;;;31.65;;
26690;SDS011;14307;51.718;8.938;2023-06-26T06:10:03;33.72;;;31.13;;
26690;SDS011;14307;51.718;8.938;2023-06-26T06:12:30;34.67;;;32.05;;
26690;SDS011;14307;51.718;8.938;2023-06-26T06:14:57;34.05;;;31.75;;
26690;SDS011;14307;51.718;8.938;2023-06-26T06:17:24;35.30;;;32.80;;
26690;SDS011;14307;51.718;8.938;2023-06-26T06:19:51;35.78;;;33.17;;
26690;SDS011;14307;51.718;8.938;2023-06-26T06:22:18;34.80;;;32.30;;
26690;SDS011;14307;51.718;8.938;2023-06-26T06:24:45;35.38;;;32.55;;
26690;SDS011;14307;51.718;8.938;2023-06-26T06:27:12;35.55;;;33.05;;
26690;SDS011;14307;51.718;8.938;2023-06-26T06:29:39;35.63;;;33.13;;
26690;SDS011;14307;51.718;8.938;2023-06-26T06:32:06;34.95;;;32.58;;
26690;SDS011;14307;51.718;8.938;2023-06-26T06:34:33;36.05;;;33.55;;
26690;SDS011;14307;51.718;8.938;2023-06-26T06:37:01;37.60;;;35.10;;
26690;SDS011;14307;51.718;8.938;2023-06-26T06:39:28;37.40;;;34.85;;
26690;SDS011;14307;51.718;8.938;2023-06-26T06:41:55;38.13;;;35.63;;
26690;SDS011;14307;51.718;8.938;2023-06-26T06:44:22;38.75;;;35.80;;
26690;SDS011;14307;51.718;8.938;2023-06-26T06:46:48;37.35;;;34.80;;
26690;SDS011;14307;51.718;8.938;2023-06-26T06:49:15;38.75;;;36.10;;
26690;SDS011;14307;51.718;8.938;2023-06-26T06:51:42;37.63;;;35.03;;
26690;SDS011;14307;51.718;8.938;2023-06-26T06:54:09;37.75;;;35.25;;
26690;SDS011;14307;51.718;8.938;2023-06-26T06:56:36;37.60;;;35.10;;
26690;SDS011;14307;51.718;8.938;2023-06-26T06:59:03;39.03;;;36.42;;
26690;SDS011;14307;51.718;8.938;2023-06-26T07:01:29;37.28;;;34.97;;
26690;SDS011;14307;51.718;8.938;2023-06-26T07:03:56;37.72;;;34.92;;
26690;SDS011;14307;51.718;8.938;2023-06-26T07:06:24;38.22;;;35.38;;
26690;SDS011;14307;51.718;8.938;2023-06-26T07:08:51;36.92;;;34.42;;
26690;SDS011;14307;51.718;8.938;2023-06-26T07:11:17;38.95;;;36.13;;
26690;SDS011;14307;51.718;8.938;2023-06-26T07:13:44;38.78;;;35.78;;
26690;SDS011;14307;51.718;8.938;2023-06-26T07:16:11;39.22;;;36.53;;
26690;SDS011;14307;51.718;8.938;2023-06-26T07:18:38;38.67;;;36.08;;
26690;SDS011;14307;51.718;8.938;2023-06-26T07:21:05;37.65;;;35.20;;
26690;SDS011;14307;51.718;8.938;2023-06-26T07:23:32;38.83;;;36.13;;
26690;SDS011;14307;51.718;8.938;2023-06-26T07:25:58;37.55;;;34.92;;
26690;SDS011;14307;51.718;8.938;2023-06-26T07:28:25;39.22;;;36.70;;
26690;SDS011;14307;51.718;8.938;2023-06-26T07:30:52;39.45;;;36.90;;
26690;SDS011;14307;51.718;8.938;2023-06-26T07:33:19;39.95;;;36.90;;
26690;SDS011;14307;51.718;8.938;2023-06-26T07:35:47;40.63;;;37.63;;
26690;SDS011;14307;51.718;8.938;2023-06-26T07:38:13;40.50;;;37.75;;
26690;SDS011;14307;51.718;8.938;2023-06-26T07:40:40;40.33;;;37.53;;
26690;SDS011;14307;51.718;8.938;2023-06-26T07:43:07;39.85;;;37.05;;
26690;SDS011;14307;51.718;8.938;2023-06-26T07:45:34;42.42;;;39.17;;
26690;SDS011;14307;51.718;8.938;2023-06-26T07:48:01;40.05;;;37.05;;
26690;SDS011;14307;51.718;8.938;2023-06-26T07:50:28;38.75;;;36.20;;
26690;SDS011;14307;51.718;8.938;2023-06-26T07:52:54;42.15;;;39.03;;
26690;SDS011;14307;51.718;8.938;2023-06-26T07:55:21;42.13;;;39.08;;
26690;SDS011;14307;51.718;8.938;2023-06-26T07:57:48;41.35;;;38.25;;
26690;SDS011;14307;51.718;8.938;2023-06-26T08:00:18;41.58;;;38.63;;
26690;SDS011;14307;51.718;8.938;2023-06-26T08:02:44;41.28;;;38.42;;
26690;SDS011;14307;51.718;8.938;2023-06-26T08:05:11;41.63;;;38.70;;
26690;SDS011;14307;51.718;8.938;2023-06-26T08:07:39;40.42;;;37.35;;
26690;SDS011;14307;51.718;8.938;2023-06-26T08:10:06;41.33;;;38.53;;
26690;SDS011;14307;51.718;8.938;2023-06-26T08:12:32;41.80;;;38.90;;
26690;SDS011;14307;51.718;8.938;2023-06-26T08:15:00;41.00;;;38.05;;
26690;SDS011;14307;51.718;8.938;2023-06-26T08:17:29;39.60;;;36.58;;
26690;SDS011;14307;51.718;8.938;2023-06-26T08:19:56;38.33;;;35.53;;
26690;SDS011;14307;51.718;8.938;2023-06-26T08:22:23;40.80;;;37.70;;
26690;SDS011;14307;51.718;8.938;2023-06-26T08:24:50;43.45;;;40.30;;
26690;SDS011;14307;51.718;8.938;2023-06-26T08:27:16;37.72;;;34.88;;
26690;SDS011;14307;51.718;8.938;2023-06-26T08:29:43;38.55;;;35.47;;
26690;SDS011;14307;51.718;8.938;2023-06-26T08:32:10;38.83;;;35.50;;
26690;SDS011;14307;51.718;8.938;2023-06-26T08:34:36;39.28;;;36.47;;
26690;SDS011;14307;51.718;8.938;2023-06-26T08:37:03;39.15;;;36.25;;
26690;SDS011;14307;51.718;8.938;2023-06-26T08:39:32;41.10;;;38.00;;
26690;SDS011;14307;51.718;8.938;2023-06-26T08:41:58;42.53;;;39.42;;
26690;SDS011;14307;51.718;8.938;2023-06-26T08:44:25;40.85;;;37.80;;
26690;SDS011;14307;51.718;8.938;2023-06-26T08:46:52;42.47;;;39.42;;
26690;SDS011;14307;51.718;8.938;2023-06-26T08:49:29;43.92;;;40.42;;
26690;SDS011;14307;51.718;8.938;2023-06-26T08:52:17;40.47;;;37.42;;
26690;SDS011;14307;51.718;8.938;2023-06-26T08:54:51;39.63;;;36.42;;
26690;SDS011;14307;51.718;8.938;2023-06-26T08:57:22;40.65;;;37.53;;
26690;SDS011;14307;51.718;8.938;2023-06-26T08:59:50;42.50;;;39.30;;
26690;SDS011;14307;51.718;8.938;2023-06-26T09:02:18;43.67;;;40.03;;
26690;SDS011;14307;51.718;8.938;2023-06-26T09:04:47;41.35;;;38.15;;
26690;SDS011;14307;51.718;8.938;2023-06-26T09:07:15;40.70;;;37.53;;
26690;SDS011;14307;51.718;8.938;2023-06-26T09:09:43;41.75;;;37.97;;
26690;SDS011;14307;51.718;8.938;2023-06-26T09:12:10;44.53;;;40.90;;
26690;SDS011;14307;51.718;8.938;2023-06-26T09:14:37;45.03;;;41.28;;
26690;SDS011;14307;51.718;8.938;2023-06-26T09:17:04;43.67;;;39.92;;
26690;SDS011;14307;51.718;8.938;2023-06-26T09:19:31;42.28;;;38.70;;
26690;SDS011;14307;51.718;8.938;2023-06-26T09:22:00;40.53;;;37.03;;
26690;SDS011;14307;51.718;8.938;2023-06-26T09:24:27;41.30;;;37.80;;
26690;SDS011;14307;51.718;8.938;2023-06-26T09:26:53;40.22;;;36.80;;
26690;SDS011;14307;51.718;8.938;2023-06-26T09:32:13;41.33;;;37.58;;
26690;SDS011;14307;51.718;8.938;2023-06-26T09:34:41;43.38;;;39.75;;
26690;SDS011;14307;51.718;8.938;2023-06-26T09:37:13;46.08;;;42.33;;
26690;SDS011;14307;51.718;8.938;2023-06-26T09:39:40;45.55;;;41.47;;
26690;SDS011;14307;51.718;8.938;2023-06-26T09:42:07;45.97;;;42.30;;
26690;SDS011;14307;51.718;8.938;2023-06-26T09:44:33;41.92;;;38.75;;
26690;SDS011;14307;51.718;8.938;2023-06-26T09:47:01;40.63;;;37.40;;
26690;SDS011;14307;51.718;8.938;2023-06-26T09:49:30;44.13;;;40.50;;
26690;SDS011;14307;51.718;8.938;2023-06-26T09:51:57;45.88;;;41.90;;
26690;SDS011;14307;51.718;8.938;2023-06-26T09:54:27;42.92;;;39.83;;
26690;SDS011;14307;51.718;8.938;2023-06-26T09:57:06;44.97;;;41.17;;
26690;SDS011;14307;51.718;8.938;2023-06-26T09:59:34;44.10;;;40.55;;
26690;SDS011;14307;51.718;8.938;2023-06-26T10:02:02;44.95;;;41.25;;
26690;SDS011;14307;51.718;8.938;2023-06-26T10:04:30;46.17;;;42.38;;
26690;SDS011;14307;51.718;8.938;2023-06-26T10:07:01;43.70;;;40.17;;
26690;SDS011;14307;51.718;8.938;2023-06-26T10:09:30;43.42;;;39.80;;
26690;SDS011;14307;51.718;8.938;2023-06-26T10:12:01;47.33;;;43.28;;
26690;SDS011;14307;51.718;8.938;2023-06-26T10:14:34;45.28;;;41.88;;
26690;SDS011;14307;51.718;8.938;2023-06-26T10:17:07;44.97;;;41.00;;
26690;SDS011;14307;51.718;8.938;2023-06-26T10:19:41;45.70;;;42.15;;
26690;SDS011;14307;51.718;8.938;2023-06-26T10:22:17;43.80;;;40.28;;
26690;SDS011;14307;51.718;8.938;2023-06-26T10:24:45;46.75;;;42.67;;
26690;SDS011;14307;51.718;8.938;2023-06-26T10:27:16;43.92;;;40.03;;
26690;SDS011;14307;51.718;8.938;2023-06-26T10:29:46;45.10;;;41.28;;
26690;SDS011;14307;51.718;8.938;2023-06-26T10:32:16;42.60;;;38.95;;
26690;SDS011;14307;51.718;8.938;2023-06-26T10:34:47;45.10;;;41.65;;
26690;SDS011;14307;51.718;8.938;2023-06-26T10:37:14;41.47;;;38.28;;
26690;SDS011;14307;51.718;8.938;2023-06-26T10:39:47;40.47;;;37.25;;
26690;SDS011;14307;51.718;8.938;2023-06-26T10:42:18;40.28;;;37.08;;
26690;SDS011;14307;51.718;8.938;2023-06-26T10:44:47;40.72;;;37.35;;
26690;SDS011;14307;51.718;8.938;2023-06-26T10:47:30;41.03;;;37.30;;
26690;SDS011;14307;51.718;8.938;2023-06-26T10:55:34;39.63;;;36.30;;
26690;SDS011;14307;51.718;8.938;2023-06-26T10:58:02;40.97;;;37.67;;
26690;SDS011;14307;51.718;8.938;2023-06-26T11:00:29;41.67;;;38.42;;
26690;SDS011;14307;51.718;8.938;2023-06-26T11:02:56;41.17;;;37.47;;
26690;SDS011;14307;51.718;8.938;2023-06-26T11:05:23;41.13;;;37.90;;
26690;SDS011;14307;51.718;8.938;2023-06-26T11:08:05;36.63;;;33.88;;
26690;SDS011;14307;51.718;8.938;2023-06-26T11:10:53;40.35;;;37.00;;
26690;SDS011;14307;51.718;8.938;2023-06-26T11:13:26;41.90;;;38.17;;
26690;SDS011;14307;51.718;8.938;2023-06-26T11:15:53;37.40;;;34.25;;
26690;SDS011;14307;51.718;8.938;2023-06-26T11:18:23;37.30;;;34.13;;
26690;SDS011;14307;51.718;8.938;2023-06-26T11:20:50;38.45;;;35.40;;
26690;SDS011;14307;51.718;8.938;2023-06-26T11:23:19;38.35;;;35.65;;
26690;SDS011;14307;51.718;8.938;2023-06-26T11:25:50;36.47;;;33.78;;
26690;SDS011;14307;51.718;8.938;2023-06-26T11:28:17;37.75;;;34.95;;
26690;SDS011;14307;51.718;8.938;2023-06-26T11:30:44;38.58;;;35.45;;
26690;SDS011;14307;51.718;8.938;2023-06-26T11:33:11;38.83;;;36.05;;
26690;SDS011;14307;51.718;8.938;2023-06-26T11:35:38;37.53;;;34.92;;
26690;SDS011;14307;51.718;8.938;2023-06-26T11:38:05;37.50;;;34.65;;
26690;SDS011;14307;51.718;8.938;2023-06-26T11:40:33;37.70;;;34.70;;
26690;SDS011;14307;51.718;8.938;2023-06-26T11:43:01;38.33;;;35.40;;
26690;SDS011;14307;51.718;8.938;2023-06-26T11:45:30;38.83;;;36.05;;
26690;SDS011;14307;51.718;8.938;2023-06-26T11:47:58;40.40;;;37.38;;
26690;SDS011;14307;51.718;8.938;2023-06-26T11:50:25;36.45;;;33.50;;
26690;SDS011;14307;51.718;8.938;2023-06-26T11:52:53;39.42;;;36.60;;
26690;SDS011;14307;51.718;8.938;2023-06-26T11:55:22;35.05;;;32.42;;
26690;SDS011;14307;51.718;8.938;2023-06-26T11:57:50;36.85;;;34.20;;
26690;SDS011;14307;51.718;8.938;2023-06-26T12:00:23;37.90;;;34.88;;
26690;SDS011;14307;51.718;8.938;2023-06-26T12:02:50;36.38;;;33.67;;
26690;SDS011;14307;51.718;8.938;2023-06-26T12:05:18;34.58;;;32.15;;
26690;SDS011;14307;51.718;8.938;2023-06-26T12:07:46;37.33;;;34.70;;
26690;SDS011;14307;51.718;8.938;2023-06-26T12:10:14;37.20;;;34.42;;
26690;SDS011;14307;51.718;8.938;2023-06-26T12:12:42;37.38;;;34.28;;
26690;SDS011;14307;51.718;8.938;2023-06-26T12:15:13;37.90;;;34.95;;
26690;SDS011;14307;51.718;8.938;2023-06-26T12:17:42;38.33;;;35.25;;
26690;SDS011;14307;51.718;8.938;2023-06-26T12:20:19;38.38;;;35.47;;
26690;SDS011;14307;51.718;8.938;2023-06-26T12:22:50;36.67;;;33.58;;
26690;SDS011;14307;51.718;8.938;2023-06-26T12:25:23;33.78;;;30.98;;
26690;SDS011;14307;51.718;8.938;2023-06-26T12:27:50;33.33;;;30.92;;
26690;SDS011;14307;51.718;8.938;2023-06-26T12:30:17;34.70;;;31.55;;
26690;SDS011;14307;51.718;8.938;2023-06-26T12:32:44;36.05;;;32.47;;
26690;SDS011;14307;51.718;8.938;2023-06-26T12:35:12;34.42;;;31.90;;
26690;SDS011;14307;51.718;8.938;2023-06-26T12:37:39;34.35;;;31.45;;
26690;SDS011;14307;51.718;8.938;2023-06-26T12:40:19;35.00;;;32.10;;
26690;SDS011;14307;51.718;8.938;2023-06-26T12:42:49;32.92;;;30.65;;
26690;SDS011;14307;51.718;8.938;2023-06-26T12:45:16;33.88;;;31.17;;
26690;SDS011;14307;51.718;8.938;2023-06-26T12:47:46;34.38;;;31.98;;
26690;SDS011;14307;51.718;8.938;2023-06-26T12:50:13;37.45;;;34.50;;
26690;SDS011;14307;51.718;8.938;2023-06-26T12:52:40;32.92;;;30.48;;
26690;SDS011;14307;51.718;8.938;2023-06-26T12:55:07;30.88;;;28.40;;
26690;SDS011;14307;51.718;8.938;2023-06-26T12:57:34;31.73;;;29.45;;
26690;SDS011;14307;51.718;8.938;2023-06-26T13:00:01;32.53;;;29.77;;
26690;SDS011;14307;51.718;8.938;2023-06-26T13:02:29;32.25;;;29.85;;
26690;SDS011;14307;51.718;8.938;2023-06-26T13:04:56;33.63;;;30.77;;
26690;SDS011;14307;51.718;8.938;2023-06-26T13:07:22;36.42;;;33.83;;
26690;SDS011;14307;51.718;8.938;2023-06-26T13:09:51;34.88;;;32.35;;
26690;SDS011;14307;51.718;8.938;2023-06-26T13:12:18;36.30;;;33.50;;
26690;SDS011;14307;51.718;8.938;2023-06-26T13:14:45;34.38;;;32.17;;
26690;SDS011;14307;51.718;8.938;2023-06-26T13:17:12;32.10;;;29.60;;
26690;SDS011;14307;51.718;8.938;2023-06-26T13:19:39;32.92;;;30.58;;
26690;SDS011;14307;51.718;8.938;2023-06-26T13:22:06;34.25;;;31.95;;
26690;SDS011;14307;51.718;8.938;2023-06-26T13:24:33;33.25;;;30.83;;
26690;SDS011;14307;51.718;8.938;2023-06-26T13:26:59;33.65;;;31.45;;
26690;SDS011;14307;51.718;8.938;2023-06-26T13:29:27;34.25;;;31.88;;
26690;SDS011;14307;51.718;8.938;2023-06-26T13:31:54;34.42;;;31.67;;
26690;SDS011;14307;51.718;8.938;2023-06-26T13:34:23;34.15;;;31.60;;
26690;SDS011;14307;51.718;8.938;2023-06-26T13:36:50;33.15;;;30.85;;
26690;SDS011;14307;51.718;8.938;2023-06-26T13:39:17;33.63;;;31.25;;
26690;SDS011;14307;51.718;8.938;2023-06-26T13:41:44;31.83;;;29.83;;
26690;SDS011;14307;51.718;8.938;2023-06-26T13:44:12;32.83;;;30.63;;
26690;SDS011;14307;51.718;8.938;2023-06-26T13:46:57;30.98;;;28.73;;
26690;SDS011;14307;51.718;8.938;2023-06-26T13:49:24;31.08;;;28.98;;
26690;SDS011;14307;51.718;8.938;2023-06-26T13:51:51;30.48;;;28.42;;
26690;SDS011;14307;51.718;8.938;2023-06-26T13:54:18;33.25;;;31.10;;
26690;SDS011;14307;51.718;8.938;2023-06-26T13:56:45;37.13;;;34.83;;
26690;SDS011;14307;51.718;8.938;2023-06-26T13:59:12;36.50;;;34.00;;
26690;SDS011;14307;51.718;8.938;2023-06-26T14:01:39;36.10;;;33.67;;
26690;SDS011;14307;51.718;8.938;2023-06-26T14:04:09;32.45;;;30.05;;
26690;SDS011;14307;51.718;8.938;2023-06-26T14:06:35;33.22;;;30.92;;
26690;SDS011;14307;51.718;8.938;2023-06-26T14:09:02;32.97;;;30.83;;
26690;SDS011;14307;51.718;8.938;2023-06-26T14:11:30;35.90;;;33.50;;
26690;SDS011;14307;51.718;8.938;2023-06-26T14:13:58;34.72;;;32.35;;
26690;SDS011;14307;51.718;8.938;2023-06-26T14:16:26;36.60;;;34.00;;
26690;SDS011;14307;51.718;8.938;2023-06-26T14:18:55;35.10;;;32.40;;
26690;SDS011;14307;51.718;8.938;2023-06-26T14:21:22;35.40;;;33.10;;
26690;SDS011;14307;51.718;8.938;2023-06-26T14:23:51;34.08;;;31.60;;
26690;SDS011;14307;51.718;8.938;2023-06-26T14:26:18;33.72;;;31.27;;
26690;SDS011;14307;51.718;8.938;2023-06-26T14:28:44;35.03;;;32.53;;
26690;SDS011;14307;51.718;8.938;2023-06-26T14:31:11;33.22;;;30.70;;
26690;SDS011;14307;51.718;8.938;2023-06-26T14:33:38;34.20;;;31.90;;
26690;SDS011;14307;51.718;8.938;2023-06-26T14:36:05;33.78;;;31.45;;
26690;SDS011;14307;51.718;8.938;2023-06-26T14:38:32;36.95;;;34.03;;